Time;durP1;ratioP1;P1;durP2;ratioP2;P2;SDS_P1;SDS_P2;PMS_P1;PMS_P2;Temp;Humidity;BMP_temperature;BMP_pressure;BME280_temperature;BME280_humidity;BME280_pressure;Samples;Min_cycle;Max_cycle;Signal;HPM_P1;HPM_P2
2023/05/22 00:00:21;;;;;;;8.48;5.57;;;;;;;21.78;57.20;100537.09;5073604;28;20060;-78
2023/05/22 00:02:49;;;;;;;10.05;4.82;;;;;;;21.72;55.66;100542.13;5073792;28;20048;-78
2023/05/22 00:05:19;;;;;;;8.27;5.22;;;;;;;21.83;55.33;100550.75;5073218;28;20048;-76
2023/05/22 00:07:47;;;;;;;7.80;5.20;;;;;;;21.82;56.09;100557.50;5071900;28;20052;-75
2023/05/22 00:10:14;;;;;;;11.10;5.15;;;;;;;21.83;55.61;100550.75;5073299;28;20390;-76
2023/05/22 00:12:42;;;;;;;10.07;6.57;;;;;;;21.95;55.65;100558.22;5072166;28;20402;-76
2023/05/22 00:15:11;;;;;;;9.73;7.53;;;;;;;22.01;53.98;100563.16;5071865;28;20037;-75
2023/05/22 00:17:39;;;;;;;13.90;7.80;;;;;;;22.01;55.68;100557.59;5072781;28;20044;-76
2023/05/22 00:20:09;;;;;;;6.38;5.07;;;;;;;22.00;54.16;100555.97;5072923;28;20049;-76
2023/05/22 00:22:37;;;;;;;8.18;5.40;;;;;;;22.06;54.85;100553.75;5072879;28;20048;-76
2023/05/22 00:25:06;;;;;;;5.95;5.10;;;;;;;22.10;54.00;100554.63;5072883;28;20051;-76
2023/05/22 00:27:34;;;;;;;6.72;5.35;;;;;;;22.09;54.03;100558.56;5072732;28;20067;-76
2023/05/22 00:30:02;;;;;;;7.70;6.68;;;;;;;21.98;54.41;100544.38;5071472;28;20048;-75
2023/05/22 00:32:30;;;;;;;9.38;4.95;;;;;;;22.01;53.03;100557.59;5072795;28;20044;-76
2023/05/22 00:34:58;;;;;;;7.03;5.10;;;;;;;22.06;53.44;100550.13;5071512;28;20123;-76
2023/05/22 00:37:26;;;;;;;7.28;4.78;;;;;;;22.17;53.87;100542.84;5072501;28;20040;-76
2023/05/22 00:39:54;;;;;;;9.32;5.22;;;;;;;22.23;52.90;100552.56;5072643;28;20049;-76
2023/05/22 00:42:22;;;;;;;6.30;5.03;;;;;;;22.09;53.41;100547.44;5072542;28;20045;-76
2023/05/22 00:44:50;;;;;;;7.78;5.97;;;;;;;22.18;52.48;100546.47;5072531;28;20060;-76
2023/05/22 00:47:18;;;;;;;7.97;5.38;;;;;;;22.21;52.75;100549.31;5071347;28;20044;-76
2023/05/22 00:49:46;;;;;;;7.85;5.00;;;;;;;22.11;52.66;100552.66;5072632;28;20041;-76
2023/05/22 00:52:16;;;;;;;7.25;5.70;;;;;;;22.23;51.84;100549.75;5071183;28;20047;-76
2023/05/22 00:54:44;;;;;;;6.85;4.88;;;;;;;22.22;52.47;100550.13;5072253;28;20036;-75
2023/05/22 00:57:12;;;;;;;8.15;5.47;;;;;;;22.13;53.49;100542.75;5071024;28;20044;-75
2023/05/22 00:59:40;;;;;;;9.43;5.97;;;;;;;22.24;52.00;100556.16;5072240;28;20051;-75
2023/05/22 01:02:08;;;;;;;7.75;5.18;;;;;;;22.15;52.61;100542.41;5072241;28;20364;-75
2023/05/22 01:04:36;;;;;;;7.60;5.50;;;;;;;22.25;51.73;100549.41;5072190;28;20041;-76
2023/05/22 01:07:05;;;;;;;8.23;5.80;;;;;;;22.18;52.54;100547.25;5072087;28;20048;-75
2023/05/22 01:09:33;;;;;;;8.20;5.60;;;;;;;22.07;53.36;100538.63;5072274;28;20052;-76
2023/05/22 01:12:19;;;;;;;9.90;5.10;;;;;;;22.17;53.13;100542.84;5072162;28;20537;-76
2023/05/22 01:15:08;;;;;;;6.30;5.03;;;;;;;22.22;53.37;100545.38;5070311;28;20060;-76
2023/05/22 01:17:44;;;;;;;12.02;5.07;;;;;;;22.11;53.68;100541.50;5070724;28;20056;-76
2023/05/22 01:20:39;;;;;;;9.52;5.47;;;;;;;22.11;52.71;100549.88;5072087;28;20048;-76
2023/05/22 01:23:16;;;;;;;9.13;5.00;;;;;;;21.99;53.74;100543.22;5071069;28;20052;-76
2023/05/22 01:26:26;;;;;;;5.35;4.70;;;;;;;21.94;53.78;100543.47;5072260;28;20067;-76
2023/05/22 01:29:22;;;;;;;5.70;5.00;;;;;;;21.94;53.92;100542.69;5072115;28;20051;-76
2023/05/22 01:31:53;;;;;;;8.05;4.35;;;;;;;21.92;55.01;100536.66;5072142;28;20562;-76
2023/05/22 01:34:24;;;;;;;7.25;4.43;;;;;;;21.94;53.31;100540.69;5070856;28;20049;-76
2023/05/22 01:36:55;;;;;;;7.25;5.13;;;;;;;21.85;53.57;100538.09;5071905;28;20052;-76
2023/05/22 01:39:27;;;;;;;6.32;4.30;;;;;;;21.79;53.63;100536.72;5072048;28;20430;-76
2023/05/22 01:41:56;;;;;;;9.32;5.10;;;;;;;21.70;54.67;100531.34;5075138;28;20505;-76
2023/05/22 01:44:24;;;;;;;6.22;4.65;;;;;;;21.73;54.67;100536.19;5076186;28;20045;-76
2023/05/22 01:46:52;;;;;;;7.07;4.57;;;;;;;21.72;54.09;100534.59;5075806;28;20055;-75
2023/05/22 01:49:20;;;;;;;5.47;4.63;;;;;;;21.75;53.98;100542.22;5074906;28;20052;-75
2023/05/22 01:51:56;;;;;;;6.80;5.20;;;;;;;21.62;54.26;100540.66;5074797;28;20055;-76
2023/05/22 01:54:30;;;;;;;6.35;4.68;;;;;;;21.65;54.25;100545.47;5075975;28;20048;-76
2023/05/22 01:57:25;;;;;;;5.57;4.28;;;;;;;21.58;54.76;100529.41;5075622;28;20049;-76
2023/05/22 01:59:58;;;;;;;5.63;4.55;;;;;;;21.58;53.85;100532.19;5064649;28;20060;-76
2023/05/22 02:02:27;;;;;;;5.40;4.63;;;;;;;21.61;56.15;100539.03;5076076;28;20052;-76
2023/05/22 02:04:59;;;;;;;7.47;5.53;;;;;;;21.53;55.91;100534.41;5075662;28;20052;-76
2023/05/22 02:07:29;;;;;;;9.00;5.60;;;;;;;21.50;55.33;100537.94;5075668;28;20044;-76
2023/05/22 02:09:58;;;;;;;8.30;6.00;;;;;;;21.47;54.98;100536.66;5075710;28;20482;-76
2023/05/22 02:12:27;;;;;;;7.57;5.60;;;;;;;21.38;54.68;100536.81;5074284;28;20049;-76
2023/05/22 02:14:55;;;;;;;5.57;4.97;;;;;;;21.32;54.41;100527.13;5074320;28;20055;-76
2023/05/22 02:17:24;;;;;;;9.52;5.28;;;;;;;21.21;55.20;100526.78;5073865;28;20049;-76
2023/05/22 02:19:53;;;;;;;8.90;5.35;;;;;;;21.10;56.21;100526.50;5074189;28;20041;-76
2023/05/22 02:22:20;;;;;;;9.20;5.43;;;;;;;21.04;55.60;100519.56;5074224;28;20495;-76
2023/05/22 02:24:49;;;;;;;8.95;5.38;;;;;;;21.01;56.72;100517.50;5073990;28;20513;-76
2023/05/22 02:27:17;;;;;;;8.32;5.97;;;;;;;20.94;56.32;100521.69;5073901;28;20386;-76
2023/05/22 02:29:45;;;;;;;8.50;5.55;;;;;;;20.90;56.49;100518.00;5075267;28;20037;-76
2023/05/22 02:32:13;;;;;;;8.60;5.80;;;;;;;20.88;56.51;100509.19;5075302;28;20044;-76
2023/05/22 02:34:41;;;;;;;8.18;5.95;;;;;;;20.81;57.69;100514.50;5073912;28;20474;-76
2023/05/22 02:37:08;;;;;;;5.85;5.07;;;;;;;20.81;57.05;100520.06;5074882;28;20391;-76
2023/05/22 02:39:36;;;;;;;8.98;5.15;;;;;;;20.68;58.11;100511.75;5073920;28;20048;-76
2023/05/22 02:42:05;;;;;;;7.38;5.28;;;;;;;20.57;58.26;100509.81;5075078;28;20056;-76
2023/05/22 02:44:33;;;;;;;8.30;5.80;;;;;;;20.48;60.03;100512.72;5073656;28;20044;-76
2023/05/22 02:47:00;;;;;;;6.88;5.32;;;;;;;20.34;61.33;100511.09;5073512;28;20055;-76
2023/05/22 02:49:28;;;;;;;7.93;4.80;;;;;;;20.20;61.43;100513.44;5073838;28;20049;-76
2023/05/22 02:51:56;;;;;;;7.35;4.82;;;;;;;20.03;62.27;100512.50;5073528;28;20048;-76
2023/05/22 02:54:24;;;;;;;8.35;5.70;;;;;;;19.88;63.64;100508.41;5073660;28;20045;-76
2023/05/22 02:56:52;;;;;;;8.00;5.00;;;;;;;19.77;65.00;100513.63;5074574;28;20052;-76
2023/05/22 02:59:20;;;;;;;10.15;5.63;;;;;;;19.69;64.86;100508.97;5073170;28;20616;-76
2023/05/22 03:01:48;;;;;;;9.75;5.25;;;;;;;19.70;65.26;100510.59;5056852;28;20115;-76
2023/05/22 03:04:16;;;;;;;6.78;5.00;;;;;;;19.65;64.94;100505.28;5074490;28;20063;-76
2023/05/22 03:06:45;;;;;;;7.93;5.28;;;;;;;19.66;66.65;100502.16;5073396;28;20368;-77
2023/05/22 03:09:13;;;;;;;6.97;5.47;;;;;;;19.67;66.45;100514.06;5074534;28;20052;-77
2023/05/22 03:11:41;;;;;;;10.07;5.20;;;;;;;19.58;67.94;100503.88;5074400;28;20048;-76
2023/05/22 03:14:09;;;;;;;10.70;4.93;;;;;;;19.55;67.64;100496.22;5073260;28;20047;-77
2023/05/22 03:16:37;;;;;;;6.47;4.82;;;;;;;19.57;68.39;100499.47;5056105;28;20533;-77
2023/05/22 03:19:09;;;;;;;8.73;5.72;;;;;;;19.61;68.61;100510.69;5073241;28;20060;-77
2023/05/22 03:21:37;;;;;;;9.52;4.97;;;;;;;19.53;68.22;100508.81;5073073;28;20055;-76
2023/05/22 03:24:06;;;;;;;7.40;5.50;;;;;;;19.63;70.28;100513.94;5072957;28;20083;-77
2023/05/22 03:26:34;;;;;;;7.28;5.90;;;;;;;19.63;69.22;100504.78;5073987;28;20502;-77
2023/05/22 03:29:04;;;;;;;7.00;5.22;;;;;;;19.66;68.69;100507.72;5072886;28;20052;-77
2023/05/22 03:31:33;;;;;;;9.15;5.10;;;;;;;19.64;68.76;100512.78;5072808;28;20059;-77
2023/05/22 03:34:06;;;;;;;6.90;5.15;;;;;;;19.63;68.79;100507.56;5072949;28;20037;-77
2023/05/22 03:36:36;;;;;;;8.23;5.45;;;;;;;19.64;68.60;100510.00;5073909;28;20052;-77
2023/05/22 03:39:05;;;;;;;7.72;4.95;;;;;;;19.59;69.23;100505.50;5072666;28;20045;-77
2023/05/22 03:41:38;;;;;;;7.05;5.18;;;;;;;19.52;69.00;100502.47;5072541;28;20045;-76
2023/05/22 03:44:07;;;;;;;7.72;5.45;;;;;;;19.47;69.46;100508.22;5072793;28;20064;-76
2023/05/22 03:46:34;;;;;;;7.78;5.45;;;;;;;19.47;70.33;100511.00;5073630;28;20044;-76
2023/05/22 03:49:02;;;;;;;12.23;5.53;;;;;;;19.57;69.58;100515.31;5073765;28;20044;-76
2023/05/22 03:51:30;;;;;;;6.53;5.35;;;;;;;19.55;71.97;100521.19;5072267;28;20052;-77
2023/05/22 03:53:59;;;;;;;7.05;5.10;;;;;;;19.53;70.90;100517.97;5089337;28;20359;-76
2023/05/22 03:56:27;;;;;;;8.82;6.05;;;;;;;19.52;71.99;100523.84;5073675;28;20036;-76
2023/05/22 03:58:55;;;;;;;8.52;5.30;;;;;;;19.50;71.80;100526.97;5089105;28;20055;-76
2023/05/22 04:01:23;;;;;;;7.60;5.88;;;;;;;19.53;70.43;100531.00;5072109;28;20044;-76
2023/05/22 04:03:51;;;;;;;8.30;5.47;;;;;;;19.61;72.51;100524.56;5072882;28;20044;-76
2023/05/22 04:06:22;;;;;;;8.73;5.72;;;;;;;19.62;70.72;100520.63;5073229;28;20067;-76
2023/05/22 04:08:50;;;;;;;8.25;5.57;;;;;;;19.80;69.81;100524.00;5071207;28;20049;-76
2023/05/22 04:11:18;;;;;;;5.32;4.75;;;;;;;19.85;70.79;100531.34;5071961;28;20045;-77
2023/05/22 04:13:49;;;;;;;8.68;5.18;;;;;;;19.90;69.38;100536.66;5073197;28;20049;-76
2023/05/22 04:16:17;;;;;;;6.50;5.07;;;;;;;19.98;69.88;100529.41;5073060;28;20044;-76
2023/05/22 04:18:45;;;;;;;10.32;5.32;;;;;;;19.98;70.18;100530.22;5072700;28;20044;-76
2023/05/22 04:21:13;;;;;;;6.45;5.13;;;;;;;19.93;68.51;100527.63;5080251;28;20045;-77
2023/05/22 04:23:42;;;;;;;8.68;5.30;;;;;;;19.92;68.89;100530.75;5053170;28;20045;-76
2023/05/22 04:26:10;;;;;;;6.85;4.93;;;;;;;19.93;68.74;100538.75;5053029;28;20055;-76
2023/05/22 04:28:38;;;;;;;11.00;5.25;;;;;;;19.92;68.66;100525.19;5052880;28;20064;-76
2023/05/22 04:31:05;;;;;;;7.15;4.85;;;;;;;19.92;69.04;100533.53;5056543;28;20048;-76
2023/05/22 04:33:33;;;;;;;6.40;5.15;;;;;;;19.94;69.77;100528.44;5056022;28;20045;-76
2023/05/22 04:36:01;;;;;;;8.18;5.47;;;;;;;20.02;71.33;100547.00;5061192;28;20048;-76
2023/05/22 04:38:29;;;;;;;9.35;5.72;;;;;;;20.07;69.92;100540.41;5051329;28;20483;-76
2023/05/22 04:40:57;;;;;;;7.30;5.43;;;;;;;20.16;71.53;100540.28;5052717;28;20518;-89
2023/05/22 04:43:25;;;;;;;7.60;5.95;;;;;;;20.25;70.23;100543.78;5018743;28;20049;-87
2023/05/22 04:45:53;;;;;;;7.53;5.47;;;;;;;20.40;70.35;100548.63;5088053;28;20045;-87
2023/05/22 04:48:21;;;;;;;8.95;5.65;;;;;;;20.44;69.72;100548.75;5053298;28;20059;-87
2023/05/22 04:50:49;;;;;;;9.57;5.80;;;;;;;20.53;68.94;100554.97;5051530;28;20040;-87
2023/05/22 04:53:17;;;;;;;8.55;4.68;;;;;;;20.53;69.19;100543.88;5051682;28;20384;-90
2023/05/22 04:55:45;;;;;;;6.60;4.88;;;;;;;20.59;68.64;100558.34;5036478;28;20499;-91
2023/05/22 04:58:13;;;;;;;8.63;4.70;;;;;;;20.58;67.97;100559.50;5073052;28;20040;-88
2023/05/22 05:00:41;;;;;;;7.50;5.07;;;;;;;20.63;68.13;100556.47;5066831;28;20067;-88
2023/05/22 05:03:10;;;;;;;10.18;5.30;;;;;;;20.73;70.15;100541.28;5064085;28;20051;-88
2023/05/22 05:05:38;;;;;;;7.53;5.13;;;;;;;20.82;68.40;100552.28;5052150;28;20064;-87
2023/05/22 05:08:06;;;;;;;6.82;5.07;;;;;;;20.85;66.52;100550.78;5077435;28;20041;-90
2023/05/22 05:10:34;;;;;;;9.38;5.40;;;;;;;20.93;66.70;100547.06;5077155;28;20056;-91
2023/05/22 05:13:02;;;;;;;6.32;4.57;;;;;;;21.08;66.43;100559.44;5028241;28;20052;-89
2023/05/22 05:15:32;;;;;;;6.80;4.93;;;;;;;21.20;65.49;100553.81;5018171;28;20053;-90
2023/05/22 05:18:02;;;;;;;7.88;5.47;;;;;;;21.29;64.71;100550.06;5068382;28;20052;-90
2023/05/22 05:20:30;;;;;;;5.18;4.43;;;;;;;21.34;65.42;100558.16;5048915;28;20048;-89
2023/05/22 05:22:58;;;;;;;8.43;4.90;;;;;;;21.47;64.80;100556.16;5041153;28;20048;-87
2023/05/22 05:25:25;;;;;;;7.47;4.93;;;;;;;21.50;65.37;100549.84;5050399;28;20045;-88
2023/05/22 05:27:53;;;;;;;9.98;4.90;;;;;;;21.54;66.52;100555.53;5070798;28;20396;-88
2023/05/22 05:30:23;;;;;;;6.43;5.25;;;;;;;21.57;65.31;100557.59;5027895;28;20052;-88
2023/05/22 05:33:03;;;;;;;7.10;4.75;;;;;;;21.69;64.79;100549.19;5050953;28;20056;-88
2023/05/22 05:35:38;;;;;;;6.80;4.57;;;;;;;21.64;64.73;100559.78;5053687;28;20490;-87
2023/05/22 05:38:10;;;;;;;5.95;4.90;;;;;;;21.82;64.24;100560.28;5065751;28;20395;-86
2023/05/22 05:40:40;;;;;;;5.90;5.10;;;;;;;21.92;63.64;100554.19;5050797;28;20666;-90
2023/05/22 05:43:10;;;;;;;5.35;4.85;;;;;;;22.04;62.77;100558.06;5041189;28;20052;-89
2023/05/22 05:45:38;;;;;;;5.35;4.72;;;;;;;21.98;63.71;100557.50;5054529;28;20049;-90
2023/05/22 05:48:07;;;;;;;5.45;4.30;;;;;;;22.05;62.66;100562.44;5037884;28;20059;-90
2023/05/22 05:50:38;;;;;;;10.82;5.15;;;;;;;22.06;63.38;100561.28;5054543;28;20048;-89
2023/05/22 05:53:07;;;;;;;8.40;4.80;;;;;;;22.14;63.92;100561.09;5072059;28;20048;-89
2023/05/22 05:55:35;;;;;;;7.20;5.10;;;;;;;22.14;62.23;100565.88;5054452;28;20074;-89
2023/05/22 05:58:04;;;;;;;7.22;5.00;;;;;;;22.17;62.12;100562.34;5070819;28;20051;-89
2023/05/22 06:00:44;;;;;;;7.68;4.38;;;;;;;22.28;62.63;100566.22;5053716;28;20041;-89
2023/05/22 06:03:13;;;;;;;6.13;4.55;;;;;;;22.25;61.96;100555.78;5054233;28;20063;-89
2023/05/22 06:05:58;;;;;;;6.07;4.72;;;;;;;22.27;63.36;100563.78;5070480;28;20048;-89
2023/05/22 06:08:46;;;;;;;5.15;4.60;;;;;;;22.22;62.76;100569.63;5056560;28;20055;-88
2023/05/22 06:11:14;;;;;;;7.00;4.93;;;;;;;22.13;63.68;100562.28;5070426;28;20044;-88
2023/05/22 06:13:51;;;;;;;13.30;5.35;;;;;;;22.06;63.54;100566.84;5053785;28;20398;-89
2023/05/22 06:16:19;;;;;;;6.78;4.82;;;;;;;22.04;63.78;100571.97;5037103;28;20048;-89
2023/05/22 06:18:48;;;;;;;7.47;4.70;;;;;;;22.02;65.81;100572.34;5053770;28;20048;-88
2023/05/22 06:21:19;;;;;;;6.57;4.70;;;;;;;22.13;65.19;100578.16;5053627;28;20045;-88
2023/05/22 06:23:49;;;;;;;8.82;4.50;;;;;;;22.19;65.61;100579.53;5070401;28;20398;-88
2023/05/22 06:26:18;;;;;;;6.50;5.30;;;;;;;22.32;65.70;100571.06;5070566;28;20072;-88
2023/05/22 06:28:46;;;;;;;6.82;5.13;;;;;;;22.39;65.18;100574.03;5057125;28;20044;-89
2023/05/22 06:31:14;;;;;;;8.05;4.40;;;;;;;22.41;65.36;100577.25;5057344;28;20052;-89
2023/05/22 06:33:45;;;;;;;7.90;4.63;;;;;;;22.44;64.45;100573.78;5041326;28;20502;-90
2023/05/22 06:36:13;;;;;;;6.72;5.07;;;;;;;22.50;65.64;100574.28;5057707;28;20407;-90
2023/05/22 06:38:42;;;;;;;9.45;5.45;;;;;;;22.62;65.98;100579.78;5056846;28;20048;-88
2023/05/22 06:41:26;;;;;;;7.63;5.45;;;;;;;22.74;64.98;100581.66;5056871;28;20044;-90
2023/05/22 06:43:54;;;;;;;8.27;4.80;;;;;;;22.80;63.60;100580.19;5057217;28;20056;-89
2023/05/22 06:46:27;;;;;;;5.30;4.65;;;;;;;22.96;62.77;100582.13;5072931;28;20406;-89
2023/05/22 06:49:01;;;;;;;7.40;5.10;;;;;;;23.09;62.74;100580.81;5041115;28;20052;-89
2023/05/22 06:51:36;;;;;;;6.28;4.90;;;;;;;23.31;61.77;100574.91;5041118;28;20573;-89
2023/05/22 06:54:08;;;;;;;5.65;4.68;;;;;;;23.51;61.41;100581.25;5040779;28;20075;-89
2023/05/22 06:56:37;;;;;;;7.82;4.40;;;;;;;23.59;60.75;100579.41;5056524;28;20063;-88
2023/05/22 06:59:11;;;;;;;6.78;4.68;;;;;;;23.58;59.45;100572.22;5056982;28;20055;-89
2023/05/22 07:02:09;;;;;;;4.95;4.20;;;;;;;23.64;56.70;100576.31;5073552;28;20052;-88
2023/05/22 07:05:11;;;;;;;5.05;4.55;;;;;;;23.77;51.04;100585.34;5072922;28;20063;-89
2023/05/22 07:07:50;;;;;;;8.98;4.65;;;;;;;23.95;50.15;100579.28;5073374;28;20055;-90
2023/05/22 07:10:18;;;;;;;7.38;5.15;;;;;;;24.08;51.67;100589.13;5073345;28;20052;-89
2023/05/22 07:12:46;;;;;;;8.05;4.70;;;;;;;24.12;50.10;100581.63;5056354;28;20056;-91
2023/05/22 07:15:14;;;;;;;7.13;6.13;;;;;;;23.99;47.43;100585.72;5040184;28;20041;-90
2023/05/22 07:17:48;;;;;;;9.02;5.60;;;;;;;24.02;48.09;100585.00;5057169;28;20487;-90
2023/05/22 07:20:17;;;;;;;13.73;6.70;;;;;;;24.02;49.33;100585.00;5056216;28;20052;-91
2023/05/22 07:23:00;;;;;;;12.85;7.40;;;;;;;24.23;48.79;100583.75;5073203;28;20045;-89
2023/05/22 07:25:28;;;;;;;12.10;7.25;;;;;;;24.35;49.41;100586.38;5039791;28;20048;-91
2023/05/22 07:27:57;;;;;;;7.75;5.70;;;;;;;24.33;47.07;100585.94;5039676;28;20506;-91
2023/05/22 07:30:25;;;;;;;10.30;6.18;;;;;;;24.45;48.32;100589.72;5056227;28;20048;-90
2023/05/22 07:32:54;;;;;;;8.02;5.47;;;;;;;24.42;47.55;100597.69;5056398;28;20049;-90
2023/05/22 07:35:23;;;;;;;5.32;4.80;;;;;;;24.32;46.39;100595.50;5072786;28;20395;-89
2023/05/22 07:37:51;;;;;;;6.40;5.05;;;;;;;24.40;48.87;100588.03;5072084;28;20397;-90
2023/05/22 07:40:19;;;;;;;6.18;4.60;;;;;;;24.45;49.64;100587.72;5089067;28;20067;-89
2023/05/22 07:42:48;;;;;;;6.50;4.55;;;;;;;24.43;48.29;100593.69;5070025;28;20059;-89
2023/05/22 07:45:16;;;;;;;7.18;4.80;;;;;;;24.58;47.97;100585.50;5072012;28;20041;-89
2023/05/22 07:47:44;;;;;;;7.15;4.78;;;;;;;24.68;46.94;100584.88;5055528;28;20399;-89
2023/05/22 07:50:12;;;;;;;6.63;4.70;;;;;;;24.73;46.07;100588.53;5055391;28;20045;-88
2023/05/22 07:52:44;;;;;;;6.60;5.05;;;;;;;24.79;46.76;100585.00;5059004;28;20482;-89
2023/05/22 07:55:12;;;;;;;5.95;4.70;;;;;;;24.94;45.62;100594.44;5035741;28;20057;-88
2023/05/22 07:57:42;;;;;;;7.22;4.10;;;;;;;24.85;45.81;100591.13;5052272;28;20045;-90
2023/05/22 08:00:21;;;;;;;7.65;5.18;;;;;;;24.99;45.06;100589.72;5036539;28;20053;-89
2023/05/22 08:02:49;;;;;;;5.82;4.35;;;;;;;25.08;45.84;100582.63;5036019;28;20060;-90
2023/05/22 08:05:17;;;;;;;8.68;4.88;;;;;;;25.17;46.67;100578.75;5035736;28;20041;-90
2023/05/22 08:07:45;;;;;;;8.07;4.80;;;;;;;25.09;45.35;100583.47;5068600;28;20055;-89
2023/05/22 08:10:15;;;;;;;8.43;4.50;;;;;;;25.32;43.99;100574.94;5068862;28;20059;-90
2023/05/22 08:12:44;;;;;;;5.65;4.70;;;;;;;25.31;44.44;100576.13;5069019;28;20048;-89
2023/05/22 08:15:12;;;;;;;4.97;4.05;;;;;;;25.35;45.59;100573.34;5068829;28;20056;-89
2023/05/22 08:17:40;;;;;;;9.05;5.38;;;;;;;25.16;43.32;100572.34;5035370;28;20060;-88
2023/05/22 08:20:08;;;;;;;6.65;5.00;;;;;;;25.20;44.57;100578.81;5019089;28;20053;-93
2023/05/22 08:22:38;;;;;;;6.75;5.03;;;;;;;25.28;43.72;100568.50;5035373;28;20056;-90
2023/05/22 08:25:06;;;;;;;6.53;4.53;;;;;;;25.32;44.71;100574.94;5019375;28;20510;-89
2023/05/22 08:27:34;;;;;;;6.20;4.80;;;;;;;25.26;44.24;100567.25;5053751;28;20045;-89
2023/05/22 08:30:05;;;;;;;5.97;4.80;;;;;;;25.28;44.26;100567.69;5035261;28;20053;-89
2023/05/22 08:32:33;;;;;;;5.75;4.55;;;;;;;25.38;45.62;100567.00;5035501;28;20479;-90
2023/05/22 08:35:01;;;;;;;5.50;4.47;;;;;;;25.46;45.22;100565.88;5019341;28;20068;-90
2023/05/22 08:37:30;;;;;;;8.65;4.75;;;;;;;25.55;44.03;100578.81;5037179;28;20052;-91
2023/05/22 08:39:58;;;;;;;7.40;5.70;;;;;;;25.49;43.27;100576.34;5036659;28;20040;-90
2023/05/22 08:42:26;;;;;;;6.20;4.60;;;;;;;25.58;43.53;100570.47;5018979;28;20040;-90
2023/05/22 08:44:54;;;;;;;11.02;4.93;;;;;;;25.55;43.30;100574.00;5052299;28;20044;-88
2023/05/22 08:47:25;;;;;;;6.70;4.53;;;;;;;25.61;44.10;100566.09;5052850;28;20064;-88
2023/05/22 08:49:56;;;;;;;5.03;4.47;;;;;;;25.62;45.11;100564.88;5052172;28;20049;-88
2023/05/22 08:52:41;;;;;;;5.97;4.57;;;;;;;25.69;44.70;100570.56;5051376;28;20047;-89
2023/05/22 08:55:09;;;;;;;7.70;5.43;;;;;;;25.70;45.51;100569.38;5050899;28;20068;-89
2023/05/22 08:57:38;;;;;;;5.88;4.60;;;;;;;25.76;44.70;100551.00;5067745;28;20045;-89
2023/05/22 09:00:07;;;;;;;10.55;5.00;;;;;;;25.81;44.26;100565.88;5034793;28;20053;-91
2023/05/22 09:02:37;;;;;;;7.57;4.80;;;;;;;25.89;43.53;100559.13;5051451;28;20048;-88
2023/05/22 09:05:06;;;;;;;8.55;4.72;;;;;;;25.95;43.39;100560.38;5051453;28;20068;-90
2023/05/22 09:07:36;;;;;;;8.60;5.30;;;;;;;25.83;43.95;100560.69;5018600;28;20057;-90
2023/05/22 09:10:06;;;;;;;8.98;4.70;;;;;;;26.01;44.06;100567.25;5051011;28;20053;-90
2023/05/22 09:12:34;;;;;;;6.50;5.18;;;;;;;26.10;45.17;100566.13;5018661;28;20045;-89
2023/05/22 09:15:08;;;;;;;6.30;4.70;;;;;;;26.10;45.07;100554.91;5068334;28;20812;-91
2023/05/22 09:17:40;;;;;;;8.50;5.53;;;;;;;26.06;45.03;100556.88;5051584;28;20061;-90
2023/05/22 09:20:12;;;;;;;5.55;4.32;;;;;;;25.97;41.76;100563.63;5051712;28;20060;-90
2023/05/22 09:22:40;;;;;;;5.47;4.50;;;;;;;25.93;42.72;100551.56;5018568;28;20087;-90
2023/05/22 09:25:08;;;;;;;6.63;5.18;;;;;;;26.14;44.88;100555.72;5035016;28;20052;-91
2023/05/22 09:27:36;;;;;;;7.82;5.13;;;;;;;26.30;43.98;100556.28;5034987;28;20512;-90
2023/05/22 09:30:07;;;;;;;9.57;4.93;;;;;;;26.35;43.26;100549.53;5018446;28;20045;-90
2023/05/22 09:32:36;;;;;;;6.10;4.65;;;;;;;26.31;41.09;100554.31;5051278;28;20053;-92
2023/05/22 09:35:05;;;;;;;7.03;4.80;;;;;;;26.48;42.95;100552.03;5034597;28;20041;-90
2023/05/22 09:37:35;;;;;;;6.10;4.88;;;;;;;26.46;43.69;100552.41;5051241;28;20037;-91
2023/05/22 09:40:08;;;;;;;8.90;4.85;;;;;;;26.58;42.19;100573.72;5050897;28;20049;-94
2023/05/22 09:42:36;;;;;;;6.30;5.03;;;;;;;26.52;42.26;100559.25;5034723;28;20048;-90
2023/05/22 09:45:05;;;;;;;5.72;4.53;;;;;;;26.56;42.73;100559.28;5034745;28;20311;-91
2023/05/22 09:47:34;;;;;;;5.32;4.80;;;;;;;26.60;41.92;100554.50;5050704;28;20049;-90
2023/05/22 09:50:05;;;;;;;6.25;4.93;;;;;;;26.65;42.34;100556.13;5034995;28;20041;-92
2023/05/22 09:52:36;;;;;;;6.97;4.50;;;;;;;26.69;40.60;100551.34;5035003;28;20372;-89
2023/05/22 09:55:08;;;;;;;7.78;4.85;;;;;;;26.87;41.57;100545.03;5052189;28;20049;-88
2023/05/22 09:57:45;;;;;;;6.15;4.53;;;;;;;26.82;41.16;100549.81;5051127;28;20045;-91
2023/05/22 10:00:18;;;;;;;5.78;4.88;;;;;;;26.77;39.27;100549.34;5018697;28;20068;-92
2023/05/22 10:02:48;;;;;;;5.05;4.53;;;;;;;26.90;39.73;100549.84;5054540;28;20053;-89
2023/05/22 10:05:22;;;;;;;7.38;4.95;;;;;;;26.94;39.62;100540.25;5038004;28;20060;-90
2023/05/22 10:07:52;;;;;;;11.63;5.28;;;;;;;27.03;40.94;100544.72;5071923;28;20037;-91
2023/05/22 10:10:22;;;;;;;6.28;4.53;;;;;;;26.77;40.19;100547.38;5054866;28;20052;-88
2023/05/22 10:12:55;;;;;;;5.40;4.90;;;;;;;26.86;39.47;100544.19;5038154;28;20051;-90
2023/05/22 10:15:23;;;;;;;6.03;4.47;;;;;;;26.83;39.81;100545.78;5038507;28;20053;-89
2023/05/22 10:17:52;;;;;;;6.18;4.63;;;;;;;26.84;41.00;100530.56;5021579;28;20306;-89
2023/05/22 10:20:21;;;;;;;5.80;4.90;;;;;;;27.03;40.67;100542.69;5083695;28;20052;-88
2023/05/22 10:22:53;;;;;;;5.57;4.22;;;;;;;26.88;41.04;100541.00;5038118;28;20497;-90
2023/05/22 10:25:22;;;;;;;4.93;4.25;;;;;;;26.73;40.94;100534.53;5038906;28;20513;-90
2023/05/22 10:27:54;;;;;;;6.32;4.88;;;;;;;26.98;40.21;100531.88;5072059;28;20411;-90
2023/05/22 10:30:46;;;;;;;6.63;4.90;;;;;;;27.05;40.09;100528.25;5052772;28;20052;-88
2023/05/22 10:33:46;;;;;;;7.88;4.70;;;;;;;27.20;40.18;100532.75;5062669;28;20052;-88
2023/05/22 10:36:33;;;;;;;6.80;5.22;;;;;;;27.24;41.79;100529.94;5066156;28;20487;-88
2023/05/22 10:39:29;;;;;;;7.28;4.93;;;;;;;27.23;41.41;100529.13;5057437;28;20060;-87
2023/05/22 10:41:57;;;;;;;6.60;4.55;;;;;;;27.37;43.03;100525.56;5073152;28;20044;-89
2023/05/22 10:44:25;;;;;;;5.53;4.80;;;;;;;27.53;42.30;100527.19;5073020;28;20036;-91
2023/05/22 10:46:53;;;;;;;9.23;4.93;;;;;;;27.46;41.84;100516.75;5064220;28;20040;-88
2023/05/22 10:49:22;;;;;;;7.40;4.95;;;;;;;27.54;40.67;100513.94;5085620;28;20048;-91
2023/05/22 10:51:57;;;;;;;5.63;4.80;;;;;;;27.66;39.58;100519.19;5057318;28;20482;-90
2023/05/22 10:54:40;;;;;;;7.10;4.90;;;;;;;27.61;40.26;100519.63;5045637;28;20056;-88
2023/05/22 10:57:17;;;;;;;7.38;4.43;;;;;;;27.82;39.29;100518.84;5038111;28;20045;-88
2023/05/22 10:59:48;;;;;;;5.93;4.63;;;;;;;27.80;37.91;100520.44;5074223;28;20055;-87
2023/05/22 11:02:24;;;;;;;7.35;5.15;;;;;;;27.97;40.09;100516.00;5073859;28;20072;-88
2023/05/22 11:04:52;;;;;;;6.38;5.38;;;;;;;27.75;40.76;100521.63;5089390;28;20051;-89
2023/05/22 11:07:21;;;;;;;9.93;5.00;;;;;;;27.70;39.42;100511.59;5053535;28;20045;-88
2023/05/22 11:09:59;;;;;;;9.05;5.40;;;;;;;27.97;39.94;100518.81;5069552;28;20041;-91
2023/05/22 11:12:29;;;;;;;5.05;4.53;;;;;;;27.99;40.79;100516.41;5056904;28;20056;-90
2023/05/22 11:15:05;;;;;;;5.65;4.80;;;;;;;27.94;37.32;100511.19;5076510;28;20048;-88
2023/05/22 11:17:45;;;;;;;5.03;4.40;;;;;;;28.06;40.77;100507.16;5068981;28;20053;-87
2023/05/22 11:20:24;;;;;;;10.38;5.07;;;;;;;27.93;39.83;100506.75;5074783;28;20056;-88
2023/05/22 11:22:56;;;;;;;8.70;5.18;;;;;;;28.02;41.57;100501.53;5072732;28;20060;-89
2023/05/22 11:25:26;;;;;;;5.63;4.85;;;;;;;27.94;40.99;100514.00;5061650;28;20045;-89
2023/05/22 11:27:54;;;;;;;6.07;4.95;;;;;;;27.76;38.37;100503.56;5035573;28;20037;-88
2023/05/22 11:30:29;;;;;;;5.95;5.03;;;;;;;28.06;41.60;100510.78;5067305;28;20052;-88
2023/05/22 11:33:01;;;;;;;9.05;5.32;;;;;;;28.11;39.99;100501.91;5072831;28;20049;-91
2023/05/22 11:35:30;;;;;;;6.00;4.82;;;;;;;28.15;38.04;100496.31;5039168;28;21399;-88
2023/05/22 11:37:58;;;;;;;6.93;5.20;;;;;;;28.21;39.21;100510.75;5039074;28;20044;-90
2023/05/22 11:40:28;;;;;;;5.75;4.35;;;;;;;28.31;37.44;100504.34;5071914;28;20040;-87